sensor_id;sensor_type;location;lat;lon;timestamp;pressure;altitude;pressure_sealevel;temperature;humidity
5879;BME280;2965;42.640;23.370;2023-04-12T04:02:35;93539.41;;;8.84;100.00
5879;BME280;2965;42.640;23.370;2023-04-12T04:05:01;93533.59;;;8.89;100.00
5879;BME280;2965;42.640;23.370;2023-04-12T04:07:28;93543.00;;;8.83;100.00
5879;BME280;2965;42.640;23.370;2023-04-12T04:09:54;93544.00;;;8.82;100.00
5879;BME280;2965;42.640;23.370;2023-04-12T04:12:19;93549.22;;;8.82;100.00
5879;BME280;2965;42.640;23.370;2023-04-12T04:14:45;93546.41;;;8.84;100.00
5879;BME280;2965;42.640;23.370;2023-04-12T04:17:10;93541.19;;;8.84;100.00
5879;BME280;2965;42.640;23.370;2023-04-12T04:19:35;93555.47;;;8.88;100.00
5879;BME280;2965;42.640;23.370;2023-04-12T04:22:01;93567.31;;;8.91;100.00
5879;BME280;2965;42.640;23.370;2023-04-12T04:24:26;93571.09;;;8.88;100.00
5879;BME280;2965;42.640;23.370;2023-04-12T04:26:51;93575.53;;;8.88;100.00
5879;BME280;2965;42.640;23.370;2023-04-12T04:29:19;93579.13;;;8.87;100.00
5879;BME280;2965;42.640;23.370;2023-04-12T04:31:44;93583.13;;;8.82;100.00
5879;BME280;2965;42.640;23.370;2023-04-12T04:34:10;93594.38;;;8.83;100.00
5879;BME280;2965;42.640;23.370;2023-04-12T04:36:36;93589.53;;;8.80;100.00
5879;BME280;2965;42.640;23.370;2023-04-12T04:39:02;93587.94;;;8.79;100.00
5879;BME280;2965;42.640;23.370;2023-04-12T04:41:31;93588.34;;;8.82;100.00
5879;BME280;2965;42.640;23.370;2023-04-12T04:44:06;93591.97;;;8.81;100.00
5879;BME280;2965;42.640;23.370;2023-04-12T04:46:35;93595.78;;;8.86;100.00
5879;BME280;2965;42.640;23.370;2023-04-12T04:49:02;93596.75;;;8.84;100.00
5879;BME280;2965;42.640;23.370;2023-04-12T04:51:28;93610.81;;;8.83;100.00
5879;BME280;2965;42.640;23.370;2023-04-12T04:53:53;93597.94;;;8.75;100.00
5879;BME280;2965;42.640;23.370;2023-04-12T04:56:19;93607.19;;;8.84;100.00
5879;BME280;2965;42.640;23.370;2023-04-12T04:58:47;93603.63;;;8.86;100.00
5879;BME280;2965;42.640;23.370;2023-04-12T05:01:13;93607.59;;;8.81;100.00
5879;BME280;2965;42.640;23.370;2023-04-12T05:03:41;93615.66;;;8.87;100.00
5879;BME280;2965;42.640;23.370;2023-04-12T05:06:11;93614.03;;;8.86;100.00
5879;BME280;2965;42.640;23.370;2023-04-12T05:08:37;93615.44;;;8.81;100.00
5879;BME280;2965;42.640;23.370;2023-04-12T05:11:03;93626.03;;;8.80;100.00
5879;BME280;2965;42.640;23.370;2023-04-12T05:13:28;93632.31;;;8.86;100.00
5879;BME280;2965;42.640;23.370;2023-04-12T05:15:53;93628.06;;;8.84;100.00
5879;BME280;2965;42.640;23.370;2023-04-12T05:18:19;93638.13;;;8.88;100.00
5879;BME280;2965;42.640;23.370;2023-04-12T05:20:45;93640.50;;;8.82;100.00
5879;BME280;2965;42.640;23.370;2023-04-12T05:23:12;93627.84;;;8.79;100.00
5879;BME280;2965;42.640;23.370;2023-04-12T05:25:43;93642.88;;;8.77;100.00
5879;BME280;2965;42.640;23.370;2023-04-12T05:28:08;93642.88;;;8.77;100.00
5879;BME280;2965;42.640;23.370;2023-04-12T05:30:38;93636.88;;;8.83;100.00
5879;BME280;2965;42.640;23.370;2023-04-12T05:33:04;93656.16;;;8.89;100.00
5879;BME280;2965;42.640;23.370;2023-04-12T05:35:29;93650.16;;;8.89;100.00
5879;BME280;2965;42.640;23.370;2023-04-12T05:37:55;93671.00;;;8.89;100.00
5879;BME280;2965;42.640;23.370;2023-04-12T05:40:20;93635.72;;;8.86;100.00
5879;BME280;2965;42.640;23.370;2023-04-12T05:42:46;93632.53;;;8.91;100.00
5879;BME280;2965;42.640;23.370;2023-04-12T05:45:11;93656.59;;;8.93;100.00
5879;BME280;2965;42.640;23.370;2023-04-12T05:47:37;93660.19;;;8.92;100.00
5879;BME280;2965;42.640;23.370;2023-04-12T05:50:02;93633.69;;;8.88;100.00
5879;BME280;2965;42.640;23.370;2023-04-12T05:52:28;93649.00;;;8.98;100.00
5879;BME280;2965;42.640;23.370;2023-04-12T05:54:53;93645.16;;;8.94;100.00
5879;BME280;2965;42.640;23.370;2023-04-12T05:57:18;93641.00;;;8.99;100.00
5879;BME280;2965;42.640;23.370;2023-04-12T05:59:44;93652.19;;;8.93;100.00
5879;BME280;2965;42.640;23.370;2023-04-12T06:02:09;93666.03;;;8.94;100.00
5879;BME280;2965;42.640;23.370;2023-04-12T06:04:35;93656.97;;;8.90;100.00
5879;BME280;2965;42.640;23.370;2023-04-12T06:07:02;93663.78;;;8.84;100.00
5879;BME280;2965;42.640;23.370;2023-04-12T06:09:29;93662.91;;;8.70;100.00
5879;BME280;2965;42.640;23.370;2023-04-12T06:11:55;93689.34;;;8.67;100.00
5879;BME280;2965;42.640;23.370;2023-04-12T06:14:21;93679.31;;;8.64;100.00
5879;BME280;2965;42.640;23.370;2023-04-12T06:16:46;93692.13;;;8.59;100.00
5879;BME280;2965;42.640;23.370;2023-04-12T06:19:12;93692.50;;;8.56;100.00
5879;BME280;2965;42.640;23.370;2023-04-12T06:21:37;93681.28;;;8.55;100.00
5879;BME280;2965;42.640;23.370;2023-04-12T06:24:02;93695.69;;;8.58;100.00
5879;BME280;2965;42.640;23.370;2023-04-12T06:26:29;93698.88;;;8.53;100.00
5879;BME280;2965;42.640;23.370;2023-04-12T06:28:54;93697.47;;;8.51;100.00
5879;BME280;2965;42.640;23.370;2023-04-12T06:31:20;93685.19;;;8.45;100.00
5879;BME280;2965;42.640;23.370;2023-04-12T06:33:45;93694.00;;;8.44;100.00
5879;BME280;2965;42.640;23.370;2023-04-12T06:36:11;93688.78;;;8.44;100.00
5879;BME280;2965;42.640;23.370;2023-04-12T06:38:38;93695.59;;;8.38;100.00
5879;BME280;2965;42.640;23.370;2023-04-12T06:41:05;93686.97;;;8.38;100.00
5879;BME280;2965;42.640;23.370;2023-04-12T06:43:30;93688.00;;;8.43;100.00
5879;BME280;2965;42.640;23.370;2023-04-12T06:45:56;93680.19;;;8.50;100.00
5879;BME280;2965;42.640;23.370;2023-04-12T06:48:22;93686.47;;;8.55;100.00
5879;BME280;2965;42.640;23.370;2023-04-12T06:50:47;93679.91;;;8.66;100.00
5879;BME280;2965;42.640;23.370;2023-04-12T06:53:13;93681.00;;;8.78;100.00
5879;BME280;2965;42.640;23.370;2023-04-12T06:55:39;93669.72;;;8.71;100.00
5879;BME280;2965;42.640;23.370;2023-04-12T06:58:04;93665.50;;;8.70;100.00
5879;BME280;2965;42.640;23.370;2023-04-12T07:00:30;93676.94;;;8.69;100.00
5879;BME280;2965;42.640;23.370;2023-04-12T07:02:56;93671.56;;;8.77;100.00
5879;BME280;2965;42.640;23.370;2023-04-12T07:05:21;93660.19;;;8.92;100.00
5879;BME280;2965;42.640;23.370;2023-04-12T07:07:46;93664.63;;;8.98;100.00
5879;BME280;2965;42.640;23.370;2023-04-12T07:10:12;93658.25;;;9.07;100.00
5879;BME280;2965;42.640;23.370;2023-04-12T07:12:37;93658.50;;;9.12;100.00
5879;BME280;2965;42.640;23.370;2023-04-12T07:15:03;93666.44;;;9.39;100.00
5879;BME280;2965;42.640;23.370;2023-04-12T07:17:28;93665.28;;;9.61;100.00
5879;BME280;2965;42.640;23.370;2023-04-12T07:19:54;93662.91;;;9.79;100.00
5879;BME280;2965;42.640;23.370;2023-04-12T07:22:20;93660.06;;;9.74;99.86
5879;BME280;2965;42.640;23.370;2023-04-12T07:24:45;93664.84;;;9.64;100.00
5879;BME280;2965;42.640;23.370;2023-04-12T07:27:10;93648.00;;;9.73;100.00
5879;BME280;2965;42.640;23.370;2023-04-12T07:29:36;93649.81;;;9.73;100.00
5879;BME280;2965;42.640;23.370;2023-04-12T07:32:02;93660.06;;;9.81;99.72
5879;BME280;2965;42.640;23.370;2023-04-12T07:34:27;93684.59;;;9.80;99.49
5879;BME280;2965;42.640;23.370;2023-04-12T07:36:53;93658.44;;;9.73;100.00
5879;BME280;2965;42.640;23.370;2023-04-12T07:39:18;93656.03;;;9.72;100.00
5879;BME280;2965;42.640;23.370;2023-04-12T07:41:43;93651.22;;;9.75;100.00
5879;BME280;2965;42.640;23.370;2023-04-12T07:44:11;93656.09;;;10.05;98.80
5879;BME280;2965;42.640;23.370;2023-04-12T07:46:37;93656.47;;;10.02;96.10
5879;BME280;2965;42.640;23.370;2023-04-12T07:49:04;93649.66;;;9.88;99.49
5879;BME280;2965;42.640;23.370;2023-04-12T07:51:29;93667.72;;;9.89;98.37
5879;BME280;2965;42.640;23.370;2023-04-12T07:53:55;93658.44;;;9.67;98.46
5879;BME280;2965;42.640;23.370;2023-04-12T07:56:20;93657.47;;;9.81;98.53
5879;BME280;2965;42.640;23.370;2023-04-12T07:58:46;93685.03;;;9.97;95.02
5879;BME280;2965;42.640;23.370;2023-04-12T08:01:12;93645.22;;;10.21;95.28
5879;BME280;2965;42.640;23.370;2023-04-12T08:03:37;93654.88;;;10.07;88.02
5879;BME280;2965;42.640;23.370;2023-04-12T08:06:03;93645.84;;;10.30;86.83
5879;BME280;2965;42.640;23.370;2023-04-12T08:08:28;93637.19;;;10.43;83.98
5879;BME280;2965;42.640;23.370;2023-04-12T08:10:54;93640.41;;;10.51;84.04
5879;BME280;2965;42.640;23.370;2023-04-12T08:13:20;93624.75;;;10.45;82.35
5879;BME280;2965;42.640;23.370;2023-04-12T08:15:46;93619.28;;;10.40;82.84
5879;BME280;2965;42.640;23.370;2023-04-12T08:18:11;93625.13;;;10.35;83.50
5879;BME280;2965;42.640;23.370;2023-04-12T08:20:37;93636.19;;;10.30;83.98
5879;BME280;2965;42.640;23.370;2023-04-12T08:23:05;93628.94;;;10.19;81.06
5879;BME280;2965;42.640;23.370;2023-04-12T08:25:30;93645.66;;;10.05;78.68
5879;BME280;2965;42.640;23.370;2023-04-12T08:27:56;93644.00;;;9.84;77.71
5879;BME280;2965;42.640;23.370;2023-04-12T08:30:21;93651.63;;;9.85;76.07
5879;BME280;2965;42.640;23.370;2023-04-12T08:32:51;93641.00;;;10.00;74.02
5879;BME280;2965;42.640;23.370;2023-04-12T08:35:16;93629.53;;;10.08;72.65
5879;BME280;2965;42.640;23.370;2023-04-12T08:37:42;93635.19;;;10.18;72.80
5879;BME280;2965;42.640;23.370;2023-04-12T08:40:08;93631.13;;;10.62;73.64
5879;BME280;2965;42.640;23.370;2023-04-12T08:42:34;93630.38;;;10.42;71.41
5879;BME280;2965;42.640;23.370;2023-04-12T08:45:09;93631.91;;;10.69;72.13
5879;BME280;2965;42.640;23.370;2023-04-12T08:47:40;93633.50;;;10.70;71.16
5879;BME280;2965;42.640;23.370;2023-04-12T08:50:06;93628.03;;;10.92;69.71
5879;BME280;2965;42.640;23.370;2023-04-12T08:52:34;93621.72;;;11.06;69.90
5879;BME280;2965;42.640;23.370;2023-04-12T08:55:07;93619.34;;;11.04;67.75
5879;BME280;2965;42.640;23.370;2023-04-12T08:57:34;93623.88;;;11.22;67.04
5879;BME280;2965;42.640;23.370;2023-04-12T09:00:02;93623.59;;;11.44;68.98
5879;BME280;2965;42.640;23.370;2023-04-12T09:02:28;93620.72;;;11.52;69.15
5879;BME280;2965;42.640;23.370;2023-04-12T09:04:54;93610.94;;;11.34;68.08
5879;BME280;2965;42.640;23.370;2023-04-12T09:07:21;93615.63;;;11.25;70.05
5879;BME280;2965;42.640;23.370;2023-04-12T09:09:55;93624.78;;;11.03;71.64
5879;BME280;2965;42.640;23.370;2023-04-12T09:12:21;93632.59;;;11.16;71.55
5879;BME280;2965;42.640;23.370;2023-04-12T09:15:04;93623.72;;;11.55;69.30
5879;BME280;2965;42.640;23.370;2023-04-12T09:17:33;93612.97;;;11.63;67.63
5879;BME280;2965;42.640;23.370;2023-04-12T09:20:01;93599.25;;;11.68;64.03
5879;BME280;2965;42.640;23.370;2023-04-12T09:22:34;93607.09;;;11.68;66.05
5879;BME280;2965;42.640;23.370;2023-04-12T09:25:00;93608.97;;;11.61;65.34
5879;BME280;2965;42.640;23.370;2023-04-12T09:27:26;93601.44;;;11.78;65.85
5879;BME280;2965;42.640;23.370;2023-04-12T09:30:05;93608.91;;;11.43;63.76
5879;BME280;2965;42.640;23.370;2023-04-12T09:32:30;93609.25;;;11.84;62.67
5879;BME280;2965;42.640;23.370;2023-04-12T09:34:57;93592.03;;;12.20;60.76
5879;BME280;2965;42.640;23.370;2023-04-12T09:37:24;93616.66;;;12.19;59.25
5879;BME280;2965;42.640;23.370;2023-04-12T09:40:00;93605.63;;;12.35;59.29
5879;BME280;2965;42.640;23.370;2023-04-12T09:42:26;93605.44;;;12.55;56.55
5879;BME280;2965;42.640;23.370;2023-04-12T09:44:53;93584.22;;;12.57;55.60
5879;BME280;2965;42.640;23.370;2023-04-12T09:47:19;93576.66;;;12.49;54.44
5879;BME280;2965;42.640;23.370;2023-04-12T09:49:45;93571.34;;;12.30;56.28
5879;BME280;2965;42.640;23.370;2023-04-12T09:52:13;93568.28;;;12.15;56.82
5879;BME280;2965;42.640;23.370;2023-04-12T09:54:43;93563.97;;;12.82;56.88
5879;BME280;2965;42.640;23.370;2023-04-12T09:57:09;93567.63;;;12.81;55.50
5879;BME280;2965;42.640;23.370;2023-04-12T09:59:37;93556.78;;;13.08;56.02
5879;BME280;2965;42.640;23.370;2023-04-12T10:02:06;93548.91;;;13.56;57.24
5879;BME280;2965;42.640;23.370;2023-04-12T10:04:36;93536.75;;;13.97;57.14
5879;BME280;2965;42.640;23.370;2023-04-12T10:07:04;93540.91;;;13.63;56.10
5879;BME280;2965;42.640;23.370;2023-04-12T10:09:30;93540.63;;;13.11;55.62
5879;BME280;2965;42.640;23.370;2023-04-12T10:11:56;93546.44;;;13.13;53.66
5879;BME280;2965;42.640;23.370;2023-04-12T10:14:26;93525.19;;;13.14;48.38
5879;BME280;2965;42.640;23.370;2023-04-12T10:16:59;93539.81;;;13.41;46.59
5879;BME280;2965;42.640;23.370;2023-04-12T10:19:27;93552.69;;;13.72;46.13
5879;BME280;2965;42.640;23.370;2023-04-12T10:21:54;93561.88;;;13.21;42.51
5879;BME280;2965;42.640;23.370;2023-04-12T10:24:23;93530.75;;;13.25;42.40
5879;BME280;2965;42.640;23.370;2023-04-12T10:26:53;93537.69;;;13.01;41.85
5879;BME280;2965;42.640;23.370;2023-04-12T10:29:28;93546.56;;;13.18;43.68
5879;BME280;2965;42.640;23.370;2023-04-12T10:31:56;93526.03;;;13.15;42.90
5879;BME280;2965;42.640;23.370;2023-04-12T10:34:26;93512.88;;;13.15;43.29
5879;BME280;2965;42.640;23.370;2023-04-12T10:36:58;93523.66;;;13.67;44.98
5879;BME280;2965;42.640;23.370;2023-04-12T10:42:25;93516.97;;;14.06;46.63
5879;BME280;2965;42.640;23.370;2023-04-12T10:44:56;93504.88;;;14.17;45.16
5879;BME280;2965;42.640;23.370;2023-04-12T10:47:54;93503.34;;;13.74;43.65
5879;BME280;2965;42.640;23.370;2023-04-12T10:55:40;93514.13;;;14.31;41.18
5879;BME280;2965;42.640;23.370;2023-04-12T10:58:07;93497.19;;;14.27;38.34
5879;BME280;2965;42.640;23.370;2023-04-12T11:03:21;93497.28;;;14.44;38.76
5879;BME280;2965;42.640;23.370;2023-04-12T11:06:05;93473.59;;;14.56;38.46
5879;BME280;2965;42.640;23.370;2023-04-12T11:08:31;93486.88;;;14.37;39.66
5879;BME280;2965;42.640;23.370;2023-04-12T11:11:06;93494.06;;;15.06;41.08
5879;BME280;2965;42.640;23.370;2023-04-12T11:13:42;93486.25;;;15.11;37.26
5879;BME280;2965;42.640;23.370;2023-04-12T11:16:07;93497.59;;;14.71;35.44
5879;BME280;2965;42.640;23.370;2023-04-12T11:18:33;93501.00;;;14.83;36.57
5879;BME280;2965;42.640;23.370;2023-04-12T11:20:59;93539.81;;;14.88;34.46
5879;BME280;2965;42.640;23.370;2023-04-12T11:23:26;93489.06;;;14.93;35.26
5879;BME280;2965;42.640;23.370;2023-04-12T11:25:52;93498.13;;;14.85;36.10
5879;BME280;2965;42.640;23.370;2023-04-12T11:28:18;93480.31;;;14.75;36.67
5879;BME280;2965;42.640;23.370;2023-04-12T11:30:56;93511.72;;;14.53;36.34
5879;BME280;2965;42.640;23.370;2023-04-12T11:33:36;93511.59;;;14.36;36.47
5879;BME280;2965;42.640;23.370;2023-04-12T11:36:03;93508.91;;;15.12;36.30
5879;BME280;2965;42.640;23.370;2023-04-12T11:38:29;93461.22;;;15.25;36.60
5879;BME280;2965;42.640;23.370;2023-04-12T11:40:55;93489.81;;;14.76;36.53
5879;BME280;2965;42.640;23.370;2023-04-12T11:43:20;93485.00;;;14.73;37.78
5879;BME280;2965;42.640;23.370;2023-04-12T11:45:46;93494.81;;;14.89;36.06
5879;BME280;2965;42.640;23.370;2023-04-12T11:48:12;93489.94;;;15.10;35.54
5879;BME280;2965;42.640;23.370;2023-04-12T11:50:37;93489.16;;;15.26;35.12
5879;BME280;2965;42.640;23.370;2023-04-12T11:53:13;93489.69;;;15.11;34.62
5879;BME280;2965;42.640;23.370;2023-04-12T11:55:40;93499.25;;;15.01;35.96
5879;BME280;2965;42.640;23.370;2023-04-12T11:58:11;93480.78;;;15.29;36.57
5879;BME280;2965;42.640;23.370;2023-04-12T12:00:36;93480.53;;;15.14;34.92
5879;BME280;2965;42.640;23.370;2023-04-12T12:03:02;93483.03;;;15.09;35.92
5879;BME280;2965;42.640;23.370;2023-04-12T12:05:28;93481.44;;;15.36;37.11
5879;BME280;2965;42.640;23.370;2023-04-12T12:07:54;93486.81;;;15.42;35.75
5879;BME280;2965;42.640;23.370;2023-04-12T12:10:19;93481.63;;;15.18;35.21
5879;BME280;2965;42.640;23.370;2023-04-12T12:12:45;93491.06;;;15.14;36.15
5879;BME280;2965;42.640;23.370;2023-04-12T12:15:14;93495.84;;;14.13;37.08
5879;BME280;2965;42.640;23.370;2023-04-12T12:17:39;93470.19;;;14.44;37.32
5879;BME280;2965;42.640;23.370;2023-04-12T12:20:05;93480.72;;;14.20;37.48
5879;BME280;2965;42.640;23.370;2023-04-12T12:22:31;93474.53;;;14.50;36.12
5879;BME280;2965;42.640;23.370;2023-04-12T12:24:58;93461.34;;;15.02;35.97
5879;BME280;2965;42.640;23.370;2023-04-12T12:29:53;93470.28;;;15.01;37.63
5879;BME280;2965;42.640;23.370;2023-04-12T12:32:19;93486.44;;;15.21;37.37
5879;BME280;2965;42.640;23.370;2023-04-12T12:34:51;93475.31;;;15.48;36.70
5879;BME280;2965;42.640;23.370;2023-04-12T12:37:19;93457.19;;;16.02;36.56
5879;BME280;2965;42.640;23.370;2023-04-12T12:42:33;93488.34;;;14.69;35.16
5879;BME280;2965;42.640;23.370;2023-04-12T12:44:58;93483.16;;;15.14;36.28
5879;BME280;2965;42.640;23.370;2023-04-12T12:47:24;93494.59;;;15.20;37.02
5879;BME280;2965;42.640;23.370;2023-04-12T12:49:49;93476.06;;;15.31;36.78
5879;BME280;2965;42.640;23.370;2023-04-12T12:52:14;93485.44;;;15.68;37.81
5879;BME280;2965;42.640;23.370;2023-04-12T12:54:40;93497.97;;;15.77;35.19
5879;BME280;2965;42.640;23.370;2023-04-12T12:57:05;93488.00;;;15.51;35.65
5879;BME280;2965;42.640;23.370;2023-04-12T12:59:31;93499.00;;;15.76;35.05
5879;BME280;2965;42.640;23.370;2023-04-12T13:01:56;93486.25;;;15.56;35.19
5879;BME280;2965;42.640;23.370;2023-04-12T13:04:21;93469.25;;;15.98;34.94
5879;BME280;2965;42.640;23.370;2023-04-12T13:06:47;93487.31;;;16.06;34.91
5879;BME280;2965;42.640;23.370;2023-04-12T13:09:12;93478.50;;;15.50;35.61
5879;BME280;2965;42.640;23.370;2023-04-12T13:11:38;93479.50;;;15.77;36.14
5879;BME280;2965;42.640;23.370;2023-04-12T13:14:03;93487.38;;;16.11;35.97
5879;BME280;2965;42.640;23.370;2023-04-12T13:16:28;93492.19;;;16.53;36.34
5879;BME280;2965;42.640;23.370;2023-04-12T13:18:54;93480.59;;;16.54;35.79
5879;BME280;2965;42.640;23.370;2023-04-12T13:21:19;93479.41;;;16.45;34.71
5879;BME280;2965;42.640;23.370;2023-04-12T13:23:45;93478.53;;;15.83;33.92
5879;BME280;2965;42.640;23.370;2023-04-12T13:26:10;93488.72;;;16.30;35.14
5879;BME280;2965;42.640;23.370;2023-04-12T13:28:35;93499.47;;;15.73;34.26
5879;BME280;2965;42.640;23.370;2023-04-12T13:31:01;93501.53;;;15.71;35.63
5879;BME280;2965;42.640;23.370;2023-04-12T13:33:26;93504.44;;;16.03;35.79
5879;BME280;2965;42.640;23.370;2023-04-12T13:35:51;93492.41;;;16.29;35.96
5879;BME280;2965;42.640;23.370;2023-04-12T13:38:17;93488.59;;;16.42;36.50
5879;BME280;2965;42.640;23.370;2023-04-12T13:40:43;93501.94;;;15.97;35.49
5879;BME280;2965;42.640;23.370;2023-04-12T13:43:08;93491.31;;;15.92;36.20
5879;BME280;2965;42.640;23.370;2023-04-12T13:45:33;93496.91;;;16.12;36.91
5879;BME280;2965;42.640;23.370;2023-04-12T13:47:59;93499.34;;;16.35;36.12
5879;BME280;2965;42.640;23.370;2023-04-12T13:50:25;93498.84;;;15.83;35.73
5879;BME280;2965;42.640;23.370;2023-04-12T13:52:50;93500.59;;;15.77;35.68
5879;BME280;2965;42.640;23.370;2023-04-12T13:55:15;93499.88;;;15.99;36.64
5879;BME280;2965;42.640;23.370;2023-04-12T13:57:41;93512.88;;;16.22;36.55
5879;BME280;2965;42.640;23.370;2023-04-12T14:00:07;93511.22;;;16.55;35.35
5879;BME280;2965;42.640;23.370;2023-04-12T14:02:32;93509.94;;;16.74;36.11
5879;BME280;2965;42.640;23.370;2023-04-12T14:04:58;93509.53;;;16.10;36.09
5879;BME280;2965;42.640;23.370;2023-04-12T14:07:24;93506.63;;;15.61;36.01
5879;BME280;2965;42.640;23.370;2023-04-12T14:09:49;93503.31;;;16.16;36.88
5879;BME280;2965;42.640;23.370;2023-04-12T14:12:15;93501.41;;;15.78;37.77
5879;BME280;2965;42.640;23.370;2023-04-12T14:14:40;93494.81;;;16.14;36.79
5879;BME280;2965;42.640;23.370;2023-04-12T14:17:05;93492.25;;;16.19;36.41
5879;BME280;2965;42.640;23.370;2023-04-12T14:19:31;93487.63;;;16.26;36.42
5879;BME280;2965;42.640;23.370;2023-04-12T14:21:56;93490.59;;;16.52;34.54
5879;BME280;2965;42.640;23.370;2023-04-12T14:24:22;93498.31;;;16.20;34.42
5879;BME280;2965;42.640;23.370;2023-04-12T14:26:47;93517.47;;;16.49;34.70
5879;BME280;2965;42.640;23.370;2023-04-12T14:29:14;93508.41;;;16.23;34.80
5879;BME280;2965;42.640;23.370;2023-04-12T14:31:40;93505.81;;;16.45;35.16
5879;BME280;2965;42.640;23.370;2023-04-12T14:34:05;93522.25;;;16.13;35.95
5879;BME280;2965;42.640;23.370;2023-04-12T14:36:32;93519.22;;;16.21;34.82
5879;BME280;2965;42.640;23.370;2023-04-12T14:38:58;93534.72;;;16.01;35.71
5879;BME280;2965;42.640;23.370;2023-04-12T14:41:24;93523.50;;;16.27;36.44
5879;BME280;2965;42.640;23.370;2023-04-12T14:43:49;93537.81;;;16.14;36.34
5879;BME280;2965;42.640;23.370;2023-04-12T14:46:16;93521.28;;;16.58;36.52
5879;BME280;2965;42.640;23.370;2023-04-12T14:48:41;93533.41;;;16.20;35.81
5879;BME280;2965;42.640;23.370;2023-04-12T14:51:07;93521.66;;;16.45;35.52
5879;BME280;2965;42.640;23.370;2023-04-12T14:53:32;93531.41;;;16.44;35.16
5879;BME280;2965;42.640;23.370;2023-04-12T14:55:58;93533.41;;;16.20;36.19
5879;BME280;2965;42.640;23.370;2023-04-12T14:58:29;93535.84;;;16.05;36.09
5879;BME280;2965;42.640;23.370;2023-04-12T15:00:57;93548.69;;;16.35;36.46
5879;BME280;2965;42.640;23.370;2023-04-12T15:03:24;93540.06;;;16.06;35.51
5879;BME280;2965;42.640;23.370;2023-04-12T15:05:51;93551.53;;;16.11;36.69
5879;BME280;2965;42.640;23.370;2023-04-12T15:08:16;93543.34;;;16.13;36.68
5879;BME280;2965;42.640;23.370;2023-04-12T15:10:42;93572.09;;;15.98;36.19
5879;BME280;2965;42.640;23.370;2023-04-12T15:13:07;93567.06;;;15.79;35.88
5879;BME280;2965;42.640;23.370;2023-04-12T15:15:32;93572.41;;;15.68;36.56
5879;BME280;2965;42.640;23.370;2023-04-12T15:17:58;93559.09;;;15.91;37.20
5879;BME280;2965;42.640;23.370;2023-04-12T15:20:23;93580.75;;;15.76;36.12
5879;BME280;2965;42.640;23.370;2023-04-12T15:22:48;93573.94;;;15.80;36.14
5879;BME280;2965;42.640;23.370;2023-04-12T15:25:14;93570.75;;;15.78;36.20
5879;BME280;2965;42.640;23.370;2023-04-12T15:27:39;93558.03;;;15.47;36.96
5879;BME280;2965;42.640;23.370;2023-04-12T15:30:05;93563.09;;;16.10;37.02
5879;BME280;2965;42.640;23.370;2023-04-12T15:32:33;93557.84;;;15.65;36.58
5879;BME280;2965;42.640;23.370;2023-04-12T15:35:02;93574.13;;;15.33;37.33
5879;BME280;2965;42.640;23.370;2023-04-12T15:37:29;93566.50;;;15.49;36.72
5879;BME280;2965;42.640;23.370;2023-04-12T15:39:54;93569.50;;;15.12;35.78
5879;BME280;2965;42.640;23.370;2023-04-12T15:42:20;93568.94;;;15.10;36.40
5879;BME280;2965;42.640;23.370;2023-04-12T15:44:45;93582.31;;;15.20;37.66
5879;BME280;2965;42.640;23.370;2023-04-12T15:47:11;93572.22;;;15.17;37.04
5879;BME280;2965;42.640;23.370;2023-04-12T15:49:39;93574.75;;;15.24;37.64
5879;BME280;2965;42.640;23.370;2023-04-12T15:52:05;93586.00;;;14.96;38.80
5879;BME280;2965;42.640;23.370;2023-04-12T15:54:30;93579.09;;;15.18;37.91
5879;BME280;2965;42.640;23.370;2023-04-12T15:56:56;93573.09;;;14.82;38.01
5879;BME280;2965;42.640;23.370;2023-04-12T15:59:21;93581.78;;;15.06;38.77
5879;BME280;2965;42.640;23.370;2023-04-12T16:01:46;93581.44;;;15.31;37.54
5879;BME280;2965;42.640;23.370;2023-04-12T16:04:12;93584.09;;;15.31;38.04
5879;BME280;2965;42.640;23.370;2023-04-12T16:06:40;93585.81;;;14.85;38.56
5879;BME280;2965;42.640;23.370;2023-04-12T16:09:05;93610.44;;;14.79;38.36
5879;BME280;2965;42.640;23.370;2023-04-12T16:11:31;93591.06;;;14.97;38.64
5879;BME280;2965;42.640;23.370;2023-04-12T16:13:59;93587.56;;;14.68;38.88
5879;BME280;2965;42.640;23.370;2023-04-12T16:16:25;93589.38;;;14.56;39.33
5879;BME280;2965;42.640;23.370;2023-04-12T16:18:51;93599.09;;;14.44;40.11
5879;BME280;2965;42.640;23.370;2023-04-12T16:21:18;93595.06;;;14.29;40.34
5879;BME280;2965;42.640;23.370;2023-04-12T16:23:48;93596.22;;;14.33;41.01
5879;BME280;2965;42.640;23.370;2023-04-12T16:26:20;93573.78;;;13.96;40.50
5879;BME280;2965;42.640;23.370;2023-04-12T16:28:50;93602.50;;;13.67;41.86
5879;BME280;2965;42.640;23.370;2023-04-12T16:31:17;93587.88;;;13.71;41.79
5879;BME280;2965;42.640;23.370;2023-04-12T16:33:47;93600.28;;;13.82;41.87
5879;BME280;2965;42.640;23.370;2023-04-12T16:36:14;93606.34;;;13.53;41.81
5879;BME280;2965;42.640;23.370;2023-04-12T16:38:40;93612.72;;;13.27;42.10
5879;BME280;2965;42.640;23.370;2023-04-12T16:41:06;93613.75;;;13.26;43.18
5879;BME280;2965;42.640;23.370;2023-04-12T16:43:31;93617.78;;;13.28;42.61
5879;BME280;2965;42.640;23.370;2023-04-12T16:46:02;93616.66;;;12.99;43.70
5879;BME280;2965;42.640;23.370;2023-04-12T16:48:29;93622.16;;;12.79;43.31
5879;BME280;2965;42.640;23.370;2023-04-12T16:50:54;93631.38;;;12.63;44.53
5879;BME280;2965;42.640;23.370;2023-04-12T16:53:19;93632.16;;;12.46;45.39
5879;BME280;2965;42.640;23.370;2023-04-12T16:55:45;93621.63;;;12.27;45.39
5879;BME280;2965;42.640;23.370;2023-04-12T16:58:12;93626.44;;;12.05;46.68
5879;BME280;2965;42.640;23.370;2023-04-12T17:00:38;93628.94;;;11.94;46.68
5879;BME280;2965;42.640;23.370;2023-04-12T17:03:05;93639.19;;;11.95;46.45
5879;BME280;2965;42.640;23.370;2023-04-12T17:05:33;93650.94;;;11.86;46.76
5879;BME280;2965;42.640;23.370;2023-04-12T17:07:59;93648.84;;;11.63;47.36
5879;BME280;2965;42.640;23.370;2023-04-12T17:10:24;93651.31;;;11.58;47.69
5879;BME280;2965;42.640;23.370;2023-04-12T17:12:52;93657.38;;;11.52;47.88
5879;BME280;2965;42.640;23.370;2023-04-12T17:15:19;93653.44;;;11.36;48.84
5879;BME280;2965;42.640;23.370;2023-04-12T17:17:49;93661.97;;;11.18;49.99
5879;BME280;2965;42.640;23.370;2023-04-12T17:20:16;93661.78;;;11.13;49.02
5879;BME280;2965;42.640;23.370;2023-04-12T17:22:42;93660.41;;;11.04;49.09
5879;BME280;2965;42.640;23.370;2023-04-12T17:25:08;93666.84;;;11.01;49.88
5879;BME280;2965;42.640;23.370;2023-04-12T17:27:34;93673.31;;;10.99;50.33